createdAt,value
2018-11-28T00:00:40.116Z,35.67
2018-11-28T00:03:10.706Z,37.65
2018-11-28T00:05:41.458Z,35.85
2018-11-28T00:08:27.071Z,39.00
2018-11-28T00:10:57.983Z,32.57
2018-11-28T00:13:28.602Z,34.40
2018-11-28T00:15:59.558Z,34.40
2018-11-28T00:18:30.410Z,34.73
2018-11-28T00:21:01.317Z,38.83
2018-11-28T00:23:32.257Z,35.33
2018-11-28T00:26:02.907Z,32.77
2018-11-28T00:28:33.715Z,33.40
2018-11-28T00:31:04.634Z,35.80
2018-11-28T00:33:35.289Z,33.92
2018-11-28T00:36:06.454Z,36.93
2018-11-28T00:38:37.365Z,37.70
2018-11-28T00:41:08.381Z,37.20
2018-11-28T00:43:39.341Z,37.63
2018-11-28T00:46:10.205Z,36.75
2018-11-28T00:48:41.198Z,33.60
2018-11-28T00:51:12.108Z,37.60
2018-11-28T00:53:42.985Z,39.33
2018-11-28T00:56:13.951Z,38.28
2018-11-28T00:58:44.858Z,33.45
2018-11-28T01:01:15.822Z,34.88
2018-11-28T01:03:46.672Z,36.28
2018-11-28T01:06:17.613Z,34.65
2018-11-28T01:08:48.493Z,36.23
2018-11-28T01:11:19.975Z,37.63
2018-11-28T01:13:50.898Z,34.00
2018-11-28T01:16:21.553Z,35.85
2018-11-28T01:18:52.502Z,38.13
2018-11-28T01:21:23.474Z,33.88
2018-11-28T01:23:54.374Z,37.53
2018-11-28T01:26:25.218Z,42.50
2018-11-28T01:28:56.062Z,41.20
2018-11-28T01:31:26.972Z,30.60
2018-11-28T01:33:57.847Z,34.43
2018-11-28T01:36:28.706Z,34.48
2018-11-28T01:38:59.598Z,35.90
2018-11-28T01:41:30.512Z,34.80
2018-11-28T01:44:01.549Z,33.02
2018-11-28T01:46:33.216Z,38.23
2018-11-28T01:49:04.166Z,38.02
2018-11-28T01:51:35.146Z,37.70
2018-11-28T01:54:06.338Z,34.63
2018-11-28T01:56:44.098Z,35.25
2018-11-28T01:59:15.629Z,32.13
2018-11-28T02:01:46.938Z,36.50
2018-11-28T02:04:17.842Z,30.43
2018-11-28T02:06:48.803Z,31.85
2018-11-28T02:09:19.746Z,34.35
2018-11-28T02:11:50.986Z,36.77
2018-11-28T02:14:21.918Z,31.45
2018-11-28T02:16:53.174Z,32.90
2018-11-28T02:19:24.090Z,34.83
2018-11-28T02:21:55.056Z,35.73
2018-11-28T02:24:26.081Z,36.93
2018-11-28T02:26:57.451Z,34.83
2018-11-28T02:29:28.310Z,33.48
2018-11-28T02:31:59.219Z,32.28
2018-11-28T02:34:30.343Z,33.00
2018-11-28T02:37:01.702Z,32.53
2018-11-28T02:39:32.335Z,34.67
2018-11-28T02:42:03.931Z,33.35
2018-11-28T02:44:35.242Z,39.40
2018-11-28T02:47:06.458Z,37.70
2018-11-28T02:49:37.481Z,32.75
2018-11-28T02:52:08.334Z,44.90
2018-11-28T02:54:39.178Z,34.63
2018-11-28T02:57:10.117Z,35.60
2018-11-28T02:59:41.706Z,35.98
2018-11-28T03:02:13.337Z,32.35
2018-11-28T03:04:44.300Z,37.93
2018-11-28T03:07:15.622Z,37.65
2018-11-28T03:09:46.630Z,38.45
2018-11-28T03:12:17.524Z,37.53
2018-11-28T03:14:48.471Z,38.75
2018-11-28T03:17:25.381Z,38.05
2018-11-28T03:19:56.662Z,38.55
2018-11-28T03:22:27.508Z,35.10
2018-11-28T03:24:58.433Z,30.27
2018-11-28T03:27:29.340Z,35.90
2018-11-28T03:30:00.403Z,32.67
2018-11-28T03:32:31.239Z,37.70
2018-11-28T03:35:02.115Z,37.98
2018-11-28T03:37:33.150Z,40.00
2018-11-28T03:40:04.086Z,33.70
2018-11-28T03:42:35.017Z,35.00
2018-11-28T03:45:09.250Z,35.20
2018-11-28T03:47:40.594Z,33.45
2018-11-28T03:50:13.468Z,30.95
2018-11-28T03:52:44.859Z,32.85
2018-11-28T03:55:16.717Z,36.35
2018-11-28T03:57:48.563Z,36.55
2018-11-28T04:00:20.968Z,32.83
2018-11-28T04:02:52.025Z,34.13
2018-11-28T04:05:22.975Z,38.02
2018-11-28T04:07:54.902Z,37.45
2018-11-28T04:10:25.847Z,36.23
2018-11-28T04:12:56.889Z,37.23
2018-11-28T04:15:27.846Z,38.95
2018-11-28T04:17:58.658Z,41.18
2018-11-28T04:20:29.630Z,39.08
2018-11-28T04:23:00.517Z,59.58
2018-11-28T04:25:31.509Z,84.40
2018-11-28T04:28:02.533Z,44.48
2018-11-28T04:30:34.161Z,91.57
2018-11-28T04:33:05.430Z,37.35
2018-11-28T04:35:36.353Z,57.88
2018-11-28T04:38:07.614Z,42.95
2018-11-28T04:40:38.534Z,42.27
2018-11-28T04:43:09.894Z,100.30
2018-11-28T04:45:40.826Z,102.72
2018-11-28T04:48:11.786Z,75.52
2018-11-28T04:50:43.306Z,72.72
2018-11-28T04:53:14.159Z,100.42
2018-11-28T04:55:45.082Z,98.12
2018-11-28T04:58:15.934Z,88.82
2018-11-28T05:00:46.849Z,53.63
2018-11-28T05:03:17.716Z,76.47
2018-11-28T05:05:48.646Z,69.92
2018-11-28T05:08:19.612Z,52.93
2018-11-28T05:10:50.526Z,54.85
2018-11-28T05:13:21.450Z,79.17
2018-11-28T05:15:52.499Z,59.93
2018-11-28T05:18:23.431Z,69.50
2018-11-28T05:20:54.379Z,87.60
2018-11-28T05:23:25.319Z,166.47
2018-11-28T05:25:56.797Z,132.78
2018-11-28T05:28:28.026Z,136.62
2018-11-28T05:30:59.810Z,76.55
2018-11-28T05:33:30.721Z,76.42
2018-11-28T05:36:01.666Z,134.70
2018-11-28T05:38:32.534Z,118.02
2018-11-28T05:41:03.181Z,68.05
2018-11-28T05:43:34.671Z,70.90
2018-11-28T05:46:06.087Z,81.00
2018-11-28T05:48:37.053Z,75.75
2018-11-28T05:51:08.657Z,89.25
2018-11-28T05:53:39.791Z,65.83
2018-11-28T05:56:10.798Z,49.63
2018-11-28T05:58:41.658Z,54.53
2018-11-28T06:01:12.361Z,50.05
2018-11-28T06:03:43.331Z,42.93
2018-11-28T06:06:14.821Z,64.70
2018-11-28T06:08:45.885Z,57.98
2018-11-28T06:11:16.917Z,59.60
2018-11-28T06:13:47.969Z,44.75
2018-11-28T06:16:18.881Z,83.82
2018-11-28T06:18:49.785Z,110.40
2018-11-28T06:21:20.774Z,51.88
2018-11-28T06:23:51.774Z,107.55
2018-11-28T06:26:22.859Z,104.70
2018-11-28T06:28:53.802Z,78.83
2018-11-28T06:31:25.784Z,60.95
2018-11-28T06:33:56.630Z,88.25
2018-11-28T06:36:27.557Z,77.55
2018-11-28T06:38:58.462Z,83.60
2018-11-28T06:41:31.458Z,86.87
2018-11-28T06:44:02.372Z,73.95
2018-11-28T06:46:33.762Z,54.20
2018-11-28T06:49:04.755Z,36.00
2018-11-28T06:51:35.630Z,40.73
2018-11-28T06:54:06.828Z,82.50
2018-11-28T06:56:37.715Z,56.55
2018-11-28T06:59:08.613Z,29.42
2018-11-28T07:01:39.562Z,27.65
2018-11-28T07:04:10.498Z,31.75
2018-11-28T07:06:41.447Z,32.15
2018-11-28T07:09:12.366Z,36.50
2018-11-28T07:11:43.325Z,31.37
2018-11-28T07:14:14.272Z,27.70
2018-11-28T07:16:45.186Z,30.55
2018-11-28T07:19:16.183Z,28.20
2018-11-28T07:21:47.296Z,28.57
2018-11-28T07:24:18.229Z,34.35
2018-11-28T07:26:49.134Z,34.45
2018-11-28T07:29:20.030Z,36.98
2018-11-28T07:31:51.070Z,28.80
2018-11-28T07:34:22.370Z,36.10
2018-11-28T07:36:53.317Z,33.63
2018-11-28T07:39:24.158Z,31.00
2018-11-28T07:41:55.088Z,32.48
2018-11-28T07:44:26.455Z,37.63
2018-11-28T07:46:57.293Z,31.75
2018-11-28T07:49:29.041Z,35.40
2018-11-28T07:51:59.993Z,37.48
2018-11-28T07:54:31.012Z,32.38
2018-11-28T07:57:01.992Z,39.40
2018-11-28T07:59:33.099Z,33.80
2018-11-28T08:02:04.191Z,30.72
2018-11-28T08:04:35.125Z,37.23
2018-11-28T08:07:06.782Z,36.28
2018-11-28T08:09:37.902Z,40.38
2018-11-28T08:12:09.760Z,34.75
2018-11-28T08:14:40.619Z,33.42
2018-11-28T08:17:11.599Z,32.17
2018-11-28T08:19:42.526Z,31.68
2018-11-28T08:22:13.469Z,28.70
2018-11-28T08:24:44.298Z,32.50
2018-11-28T08:27:15.199Z,29.87
2018-11-28T08:29:46.126Z,35.55
2018-11-28T08:32:17.010Z,29.50
2018-11-28T08:34:47.967Z,30.77
2018-11-28T08:37:18.962Z,28.80
2018-11-28T08:39:49.810Z,31.95
2018-11-28T08:42:20.766Z,31.48
2018-11-28T08:44:51.793Z,32.15
2018-11-28T08:47:22.734Z,31.07
2018-11-28T08:49:53.667Z,29.90
2018-11-28T08:52:25.638Z,31.20
2018-11-28T08:54:56.494Z,27.37
2018-11-28T08:57:27.424Z,31.42
2018-11-28T08:59:58.395Z,31.12
2018-11-28T09:02:29.310Z,30.02
2018-11-28T09:05:00.234Z,31.45
2018-11-28T09:07:31.185Z,29.48
2018-11-28T09:10:02.158Z,30.02
2018-11-28T09:12:32.966Z,28.60
2018-11-28T09:15:03.767Z,29.93
2018-11-28T09:17:34.935Z,25.95
2018-11-28T09:20:10.198Z,47.40
2018-11-28T09:22:41.055Z,47.70
2018-11-28T09:25:15.598Z,27.90
2018-11-28T09:27:53.312Z,25.62
2018-11-28T09:30:24.646Z,28.37
2018-11-28T09:32:55.405Z,30.13
2018-11-28T09:35:27.126Z,24.53
2018-11-28T09:37:58.090Z,23.83
2018-11-28T09:40:29.315Z,23.35
2018-11-28T09:43:01.737Z,24.00
2018-11-28T09:45:32.613Z,25.45
2018-11-28T09:48:03.295Z,25.83
2018-11-28T09:50:33.897Z,26.03
2018-11-28T09:53:05.483Z,24.63
2018-11-28T09:55:36.078Z,23.00
2018-11-28T09:58:07.774Z,23.20
2018-11-28T10:00:39.503Z,22.90
2018-11-28T10:03:10.454Z,24.65
2018-11-28T10:05:41.065Z,23.07
2018-11-28T10:08:12.223Z,24.37
2018-11-28T10:10:42.865Z,23.77
2018-11-28T10:13:13.485Z,21.60
2018-11-28T10:15:44.677Z,22.60
2018-11-28T10:18:15.662Z,21.15
2018-11-28T10:20:46.942Z,23.00
2018-11-28T10:23:17.531Z,25.70
2018-11-28T10:25:48.487Z,26.68
2018-11-28T10:28:19.402Z,25.43
2018-11-28T10:30:50.455Z,25.17
2018-11-28T10:33:21.465Z,23.07
2018-11-28T10:35:52.201Z,24.00
2018-11-28T10:38:23.071Z,24.63
2018-11-28T10:40:54.203Z,24.30
2018-11-28T10:43:25.346Z,27.52
2018-11-28T10:45:56.202Z,24.97
2018-11-28T10:48:27.327Z,26.55
2018-11-28T10:50:57.959Z,27.20
2018-11-28T10:53:28.464Z,24.37
2018-11-28T10:56:00.330Z,22.80
2018-11-28T10:58:31.042Z,24.87
2018-11-28T11:01:07.088Z,25.90
2018-11-28T11:03:43.109Z,23.23
2018-11-28T11:06:19.360Z,26.83
2018-11-28T11:08:55.230Z,25.20
2018-11-28T11:11:26.690Z,23.33
2018-11-28T11:14:02.681Z,23.00
2018-11-28T11:16:34.066Z,24.67
2018-11-28T11:19:05.084Z,25.70
2018-11-28T11:21:35.823Z,25.77
2018-11-28T11:24:07.292Z,20.77
2018-11-28T11:26:38.209Z,24.65
2018-11-28T11:29:09.291Z,22.57
2018-11-28T11:31:40.378Z,24.35
2018-11-28T11:34:11.382Z,23.55
2018-11-28T11:36:42.062Z,22.70
2018-11-28T11:39:13.126Z,22.10
2018-11-28T11:41:44.020Z,23.12
2018-11-28T11:44:14.702Z,23.67
2018-11-28T11:46:45.511Z,22.67
2018-11-28T11:49:16.271Z,22.40
2018-11-28T11:51:47.318Z,22.97
2018-11-28T11:54:17.960Z,22.07
2018-11-28T11:56:48.879Z,22.62
2018-11-28T11:59:19.762Z,22.90
2018-11-28T12:01:54.742Z,21.00
2018-11-28T12:04:21.160Z,17.67
2018-11-28T12:06:52.013Z,21.10
2018-11-28T12:09:24.282Z,21.77
2018-11-28T12:11:55.027Z,18.77
2018-11-28T12:14:25.904Z,19.75
2018-11-28T12:16:57.144Z,19.70
2018-11-28T12:19:28.030Z,20.10
2018-11-28T12:21:58.999Z,20.70
2018-11-28T12:24:29.917Z,19.98
2018-11-28T12:27:00.665Z,19.20
2018-11-28T12:29:31.390Z,17.77
2018-11-28T12:32:02.016Z,18.30
2018-11-28T12:34:33.419Z,19.00
2018-11-28T12:37:03.749Z,18.50
2018-11-28T12:39:34.392Z,17.80
2018-11-28T12:42:05.038Z,19.27
2018-11-28T12:44:35.621Z,17.80
2018-11-28T12:47:06.925Z,18.40
2018-11-28T12:49:37.539Z,15.80
2018-11-28T12:52:08.770Z,18.80
2018-11-28T12:54:39.719Z,16.23
2018-11-28T12:57:10.446Z,17.30
2018-11-28T12:59:41.039Z,18.75
2018-11-28T13:02:11.910Z,19.98
2018-11-28T13:04:42.925Z,16.40
2018-11-28T13:07:13.581Z,17.80
2018-11-28T13:09:44.722Z,19.73
2018-11-28T13:12:16.406Z,17.63
2018-11-28T13:14:47.850Z,16.97
2018-11-28T13:17:18.503Z,17.50
2018-11-28T13:19:49.096Z,17.63
2018-11-28T13:22:19.789Z,17.90
2018-11-28T13:24:50.461Z,15.93
2018-11-28T13:27:22.541Z,16.07
2018-11-28T13:29:53.100Z,17.73
2018-11-28T13:32:23.718Z,18.20
2018-11-28T13:34:54.406Z,16.70
2018-11-28T13:37:25.353Z,15.40
2018-11-28T13:39:56.194Z,21.13
2018-11-28T13:42:26.818Z,16.77
2018-11-28T13:44:57.585Z,16.00
2018-11-28T13:47:28.138Z,18.03
2018-11-28T13:49:59.436Z,16.50
2018-11-28T13:52:30.077Z,16.47
2018-11-28T13:57:31.446Z,16.73
2018-11-28T14:00:02.086Z,18.10
2018-11-28T14:02:32.677Z,16.10
2018-11-28T14:05:03.331Z,18.53
2018-11-28T14:07:34.162Z,17.93
2018-11-28T14:10:08.485Z,19.85
2018-11-28T14:12:39.255Z,18.90
2018-11-28T14:15:19.546Z,21.90
2018-11-28T14:18:00.520Z,17.50
2018-11-28T14:20:31.374Z,18.03
2018-11-28T14:23:01.985Z,17.97
2018-11-28T14:25:32.688Z,17.77
2018-11-28T14:28:03.466Z,17.40
2018-11-28T14:30:34.121Z,18.70
2018-11-28T14:33:04.831Z,18.40
2018-11-28T14:35:35.800Z,19.03
2018-11-28T14:38:06.923Z,20.60
2018-11-28T14:40:37.542Z,20.27
2018-11-28T14:43:08.950Z,19.67
2018-11-28T14:45:39.991Z,20.43
2018-11-28T14:48:10.710Z,20.40
2018-11-28T14:50:41.482Z,19.47
2018-11-28T14:53:12.146Z,21.40
2018-11-28T14:55:43.414Z,20.97
2018-11-28T14:58:14.398Z,19.67
2018-11-28T15:00:45.362Z,19.93
2018-11-28T15:03:19.982Z,21.25
2018-11-28T15:06:56.694Z,18.98
2018-11-28T15:09:34.694Z,19.40
2018-11-28T15:12:11.760Z,17.90
2018-11-28T15:14:41.374Z,18.40
2018-11-28T15:17:12.080Z,20.40
2018-11-28T15:19:42.992Z,21.02
2018-11-28T15:22:13.810Z,22.10
2018-11-28T15:24:45.174Z,19.80
2018-11-28T15:27:15.946Z,18.70
2018-11-28T15:29:47.058Z,19.43
2018-11-28T15:32:18.337Z,18.17
2018-11-28T15:34:48.957Z,21.57
2018-11-28T15:37:19.605Z,20.50
2018-11-28T15:39:55.686Z,19.47
2018-11-28T15:42:20.997Z,21.73
2018-11-28T15:44:51.678Z,19.60
2018-11-28T15:47:22.426Z,19.67
2018-11-28T15:49:53.051Z,20.90
2018-11-28T15:52:24.175Z,20.00
2018-11-28T15:54:54.832Z,20.23
2018-11-28T15:57:25.714Z,22.25
2018-11-28T15:59:56.690Z,21.73
2018-11-28T16:02:27.650Z,25.07
2018-11-28T16:04:58.383Z,20.37
2018-11-28T16:07:28.963Z,21.20
2018-11-28T16:10:04.992Z,20.00
2018-11-28T16:12:36.406Z,20.95
2018-11-28T16:15:09.945Z,22.20
2018-11-28T16:17:40.283Z,20.67
2018-11-28T16:20:11.573Z,20.43
2018-11-28T16:22:42.574Z,20.93
2018-11-28T16:25:14.026Z,21.93
2018-11-28T16:27:45.037Z,22.70
2018-11-28T16:30:16.887Z,21.57
2018-11-28T16:32:48.247Z,21.77
2018-11-28T16:35:19.567Z,23.47
2018-11-28T16:37:50.715Z,25.17
2018-11-28T16:40:21.374Z,22.50
2018-11-28T16:42:52.618Z,21.73
2018-11-28T16:45:23.333Z,20.83
2018-11-28T16:47:54.682Z,21.75
2018-11-28T16:50:25.724Z,22.45
2018-11-28T16:52:57.017Z,21.60
2018-11-28T16:55:27.918Z,20.45
2018-11-28T16:57:58.875Z,21.23
2018-11-28T17:00:31.589Z,22.60
2018-11-28T17:03:02.482Z,23.35
2018-11-28T17:05:33.382Z,21.07
2018-11-28T17:08:05.666Z,21.00
2018-11-28T17:10:37.250Z,20.75
2018-11-28T17:13:08.887Z,21.73
2018-11-28T17:15:39.814Z,18.37
2018-11-28T17:18:10.534Z,22.07
2018-11-28T17:20:43.842Z,20.23
2018-11-28T17:23:14.711Z,21.07
2018-11-28T17:25:45.684Z,22.35
2018-11-28T17:28:16.614Z,20.85
2018-11-28T17:30:47.581Z,23.47
2018-11-28T17:33:18.538Z,21.87
2018-11-28T17:35:49.466Z,22.42
2018-11-28T17:38:20.395Z,20.92
2018-11-28T17:40:51.566Z,20.82
2018-11-28T17:43:21.945Z,21.27
2018-11-28T17:45:52.921Z,21.15
2018-11-28T17:48:23.942Z,24.32
2018-11-28T17:50:54.846Z,22.45
2018-11-28T17:53:25.806Z,25.75
2018-11-28T17:55:58.662Z,23.35
2018-11-28T17:58:29.632Z,22.80
2018-11-28T18:01:00.578Z,22.40
2018-11-28T18:03:31.458Z,21.70
2018-11-28T18:06:02.546Z,22.90
2018-11-28T18:08:33.518Z,23.20
2018-11-28T18:11:14.522Z,23.52
2018-11-28T18:13:45.767Z,24.35
2018-11-28T18:16:16.732Z,21.52
2018-11-28T18:18:47.414Z,23.32
2018-11-28T18:21:18.306Z,20.25
2018-11-28T18:23:49.282Z,20.90
2018-11-28T18:26:20.166Z,26.07
2018-11-28T18:28:51.131Z,23.65
2018-11-28T18:31:22.044Z,26.20
2018-11-28T18:33:52.948Z,24.63
2018-11-28T18:36:24.198Z,22.85
2018-11-28T18:38:55.191Z,27.27
2018-11-28T18:41:26.133Z,22.98
2018-11-28T18:43:56.966Z,20.68
2018-11-28T18:46:27.997Z,24.35
2018-11-28T18:48:58.927Z,21.30
2018-11-28T18:51:29.993Z,24.35
2018-11-28T18:54:00.990Z,23.83
2018-11-28T18:56:32.251Z,22.87
2018-11-28T18:59:03.137Z,21.02
2018-11-28T19:01:34.087Z,25.68
2018-11-28T19:04:05.122Z,22.35
2018-11-28T19:06:37.223Z,23.67
2018-11-28T19:09:14.316Z,24.00
2018-11-28T19:11:45.390Z,29.12
2018-11-28T19:14:17.448Z,30.50
2018-11-28T19:16:48.480Z,30.48
2018-11-28T19:19:19.530Z,27.98
2018-11-28T19:21:50.673Z,26.48
2018-11-28T19:24:21.646Z,25.08
2018-11-28T19:26:52.927Z,24.47
2018-11-28T19:29:23.874Z,23.02
2018-11-28T19:31:54.810Z,25.27
2018-11-28T19:34:25.939Z,24.67
2018-11-28T19:36:57.120Z,23.60
2018-11-28T19:39:28.189Z,24.25
2018-11-28T19:41:59.105Z,23.10
2018-11-28T19:44:29.728Z,23.20
2018-11-28T19:47:01.457Z,25.62
2018-11-28T19:49:32.301Z,23.42
2018-11-28T19:52:04.306Z,24.80
2018-11-28T19:54:36.159Z,22.30
2018-11-28T19:57:07.419Z,22.05
2018-11-28T19:59:38.283Z,24.87
2018-11-28T20:02:09.851Z,24.20
2018-11-28T20:04:40.782Z,25.12
2018-11-28T20:07:12.044Z,23.90
2018-11-28T20:09:43.088Z,25.62
2018-11-28T20:12:14.026Z,24.43
2018-11-28T20:14:44.962Z,25.12
2018-11-28T20:17:16.033Z,27.52
2018-11-28T20:19:47.058Z,25.95
2018-11-28T20:22:17.958Z,25.17
2018-11-28T20:24:48.983Z,25.97
2018-11-28T20:27:19.815Z,23.35
2018-11-28T20:29:51.505Z,26.52
2018-11-28T20:32:22.556Z,23.75
2018-11-28T20:34:53.514Z,24.57
2018-11-28T20:37:24.534Z,22.15
2018-11-28T20:39:55.558Z,23.12
2018-11-28T20:42:26.502Z,25.72
2018-11-28T20:44:57.479Z,27.40
2018-11-28T20:47:28.457Z,26.85
2018-11-28T20:49:59.338Z,23.80
2018-11-28T20:52:30.312Z,25.48
2018-11-28T20:55:02.369Z,28.57
2018-11-28T20:57:33.420Z,25.37
2018-11-28T21:00:07.574Z,26.62
2018-11-28T21:02:38.751Z,24.85
2018-11-28T21:05:10.101Z,28.38
2018-11-28T21:07:41.038Z,30.02
2018-11-28T21:10:18.850Z,30.25
2018-11-28T21:12:50.286Z,28.00
2018-11-28T21:15:21.318Z,26.85
2018-11-28T21:17:52.247Z,26.12
2018-11-28T21:20:23.919Z,25.30
2018-11-28T21:23:00.767Z,28.85
2018-11-28T21:25:31.646Z,23.92
2018-11-28T21:28:02.642Z,23.65
2018-11-28T21:30:33.603Z,24.52
2018-11-28T21:33:04.513Z,26.95
2018-11-28T21:35:37.734Z,25.25
2018-11-28T21:38:09.923Z,26.57
2018-11-28T21:40:41.035Z,28.50
2018-11-28T21:43:12.015Z,24.45
2018-11-28T21:45:43.148Z,22.50
2018-11-28T21:48:14.057Z,24.00
2018-11-28T21:50:45.166Z,30.08
2018-11-28T21:53:16.134Z,25.48
2018-11-28T21:55:46.917Z,26.82
2018-11-28T21:58:17.867Z,24.07
2018-11-28T22:00:48.944Z,24.47
2018-11-28T22:03:19.790Z,24.67
2018-11-28T22:05:50.748Z,23.20
2018-11-28T22:08:21.618Z,23.55
2018-11-28T22:10:52.510Z,23.27
2018-11-28T22:13:23.422Z,23.85
2018-11-28T22:15:54.313Z,26.05
2018-11-28T22:18:25.182Z,25.80
2018-11-28T22:20:56.101Z,22.17
2018-11-28T22:23:27.626Z,25.43
2018-11-28T22:25:58.704Z,26.87
2018-11-28T22:28:29.585Z,24.23
2018-11-28T22:31:00.487Z,22.62
2018-11-28T22:33:31.330Z,25.82
2018-11-28T22:36:03.022Z,22.32
2018-11-28T22:38:33.890Z,25.43
2018-11-28T22:41:04.754Z,26.73
2018-11-28T22:43:35.646Z,26.68
2018-11-28T22:46:07.095Z,25.00
2018-11-28T22:48:38.075Z,26.05
2018-11-28T22:51:08.927Z,21.87
2018-11-28T22:53:39.646Z,23.55
2018-11-28T22:56:10.560Z,23.92
2018-11-28T22:58:41.453Z,23.98
2018-11-28T23:01:12.361Z,21.90
2018-11-28T23:03:43.326Z,23.25
2018-11-28T23:06:14.229Z,23.22
2018-11-28T23:08:45.159Z,24.40
2018-11-28T23:11:16.090Z,22.65
2018-11-28T23:13:47.450Z,24.82
2018-11-28T23:16:18.456Z,24.87
2018-11-28T23:18:49.437Z,24.18
2018-11-28T23:21:20.369Z,22.15
2018-11-28T23:23:51.370Z,20.88
2018-11-28T23:26:22.343Z,20.43
2018-11-28T23:28:53.293Z,22.98
2018-11-28T23:31:24.345Z,23.42
2018-11-28T23:33:56.388Z,23.77
2018-11-28T23:36:27.289Z,22.40
2018-11-28T23:38:58.511Z,23.45
2018-11-28T23:41:29.643Z,24.95
2018-11-28T23:44:00.542Z,24.55
2018-11-28T23:46:32.415Z,25.05
2018-11-28T23:49:03.414Z,24.45
2018-11-28T23:51:35.819Z,23.92
2018-11-28T23:54:07.183Z,24.47
2018-11-28T23:56:38.045Z,23.52
2018-11-28T23:59:08.930Z,22.67
